Time;durP1;ratioP1;P1;durP2;ratioP2;P2;SDS_P1;SDS_P2;PMS_P1;PMS_P2;Temp;Humidity;BMP_temperature;BMP_pressure;BME280_temperature;BME280_humidity;BME280_pressure;Samples;Min_cycle;Max_cycle;Signal;HPM_P1;HPM_P2
2023/03/03 00:01:25;;;;;;;21.17;8.90;;;12.10;99.90;;;;;;4984146;28;20196;-70
2023/03/03 00:03:53;;;;;;;14.97;8.90;;;12.00;99.90;;;;;;5017738;28;20212;-70
2023/03/03 00:06:20;;;;;;;21.30;9.63;;;12.10;99.90;;;;;;5015481;28;20242;-70
2023/03/03 00:08:46;;;;;;;13.10;9.27;;;12.00;99.90;;;;;;5018183;28;20692;-70
2023/03/03 00:11:13;;;;;;;31.13;10.60;;;12.00;99.90;;;;;;5019040;28;20196;-70
2023/03/03 00:13:48;;;;;;;19.83;11.30;;;12.00;99.90;;;;;;5000602;28;20675;-70
2023/03/03 00:16:36;;;;;;;22.37;11.70;;;12.00;99.90;;;;;;5017097;28;20271;-71
2023/03/03 00:19:11;;;;;;;20.00;12.70;;;12.00;99.90;;;;;;5016090;28;20230;-70
2023/03/03 00:21:44;;;;;;;18.13;12.80;;;11.90;99.90;;;;;;5017623;28;20211;-70
2023/03/03 00:24:15;;;;;;;27.10;12.47;;;11.90;99.90;;;;;;4999017;28;20698;-70
2023/03/03 00:26:49;;;;;;;21.80;13.57;;;11.90;99.90;;;;;;5018333;28;20192;-70
2023/03/03 00:29:36;;;;;;;25.30;13.10;;;11.90;99.90;;;;;;4999795;28;20291;-70
2023/03/03 00:32:14;;;;;;;19.37;12.83;;;12.00;99.90;;;;;;5016897;28;20270;-70
2023/03/03 00:34:42;;;;;;;23.03;13.33;;;12.00;99.90;;;;;;5016307;28;20198;-70
2023/03/03 00:37:35;;;;;;;20.13;13.13;;;12.00;99.90;;;;;;4999992;28;21121;-71
2023/03/03 00:40:25;;;;;;;24.13;13.10;;;12.00;99.90;;;;;;5017862;28;20706;-70
2023/03/03 00:42:58;;;;;;;21.67;13.10;;;12.00;99.90;;;;;;5018506;28;20972;-70
2023/03/03 00:45:39;;;;;;;27.87;12.80;;;11.90;99.90;;;;;;5017050;28;20219;-70
2023/03/03 00:48:34;;;;;;;20.20;11.73;;;11.90;99.90;;;;;;5016493;28;20211;-71
2023/03/03 00:51:20;;;;;;;19.53;10.60;;;11.90;99.90;;;;;;4975512;28;20630;-70
2023/03/03 00:53:46;;;;;;;18.33;10.43;;;11.90;99.90;;;;;;4997597;28;20196;-70
2023/03/03 00:56:13;;;;;;;24.03;10.97;;;12.00;99.90;;;;;;4999415;28;20230;-71
2023/03/03 00:58:39;;;;;;;19.17;10.03;;;12.00;99.90;;;;;;4980904;28;20192;-71
2023/03/03 01:01:05;;;;;;;16.93;8.77;;;12.00;99.90;;;;;;4997962;28;20206;-70
2023/03/03 01:03:31;;;;;;;18.70;8.93;;;12.00;99.90;;;;;;5017153;28;20228;-70
2023/03/03 01:05:58;;;;;;;25.23;10.33;;;12.00;99.90;;;;;;5016379;28;20199;-71
2023/03/03 01:08:24;;;;;;;23.23;10.87;;;11.90;99.90;;;;;;4998733;28;20923;-70
2023/03/03 01:10:55;;;;;;;22.60;10.47;;;11.90;99.90;;;;;;4995972;28;20190;-70
2023/03/03 01:13:27;;;;;;;26.33;10.00;;;11.90;99.90;;;;;;5016925;28;20234;-70
2023/03/03 01:15:54;;;;;;;17.07;8.33;;;11.90;99.90;;;;;;5014606;28;20599;-70
2023/03/03 01:18:20;;;;;;;12.73;6.90;;;12.00;99.90;;;;;;4999058;28;20666;-70
2023/03/03 01:20:47;;;;;;;14.10;7.10;;;12.00;99.90;;;;;;4999526;28;20194;-71
2023/03/03 01:23:14;;;;;;;13.67;6.07;;;12.10;99.90;;;;;;5018696;28;20212;-70
2023/03/03 01:25:40;;;;;;;12.97;5.43;;;12.80;99.90;;;;;;5017644;28;20187;-70
2023/03/03 01:28:07;;;;;;;17.83;6.43;;;13.00;99.90;;;;;;4999111;28;20184;-71
2023/03/03 01:30:34;;;;;;;13.47;5.97;;;12.90;99.90;;;;;;5016888;28;20188;-70
2023/03/03 01:33:00;;;;;;;13.07;6.23;;;12.80;99.90;;;;;;5018182;28;20192;-70
2023/03/03 01:35:28;;;;;;;17.20;6.63;;;12.70;99.90;;;;;;5018173;28;20192;-70
2023/03/03 01:37:55;;;;;;;10.07;5.90;;;12.60;99.90;;;;;;4997405;28;20310;-70
2023/03/03 01:40:28;;;;;;;12.77;5.83;;;12.60;99.90;;;;;;5000805;28;20184;-71
2023/03/03 01:42:55;;;;;;;12.97;5.90;;;12.50;99.90;;;;;;5015124;28;20314;-70
2023/03/03 01:45:25;;;;;;;17.80;5.67;;;12.50;99.90;;;;;;5019198;28;20646;-70
2023/03/03 01:48:22;;;;;;;13.10;5.60;;;12.50;99.90;;;;;;5017019;28;20204;-70
2023/03/03 01:50:53;;;;;;;15.03;6.23;;;12.50;99.90;;;;;;5016975;28;20192;-71
2023/03/03 01:53:43;;;;;;;19.83;6.53;;;12.40;99.90;;;;;;5002087;28;20676;-70
2023/03/03 01:56:10;;;;;;;16.67;6.73;;;12.40;99.90;;;;;;5020505;28;20257;-70
2023/03/03 01:58:51;;;;;;;18.67;7.17;;;12.30;99.90;;;;;;5019025;28;20939;-70
2023/03/03 02:01:25;;;;;;;11.97;7.30;;;12.20;99.90;;;;;;5022260;28;20407;-70
2023/03/03 02:03:54;;;;;;;15.00;6.90;;;12.10;99.90;;;;;;5019546;28;20212;-70
2023/03/03 02:06:34;;;;;;;16.57;7.00;;;12.10;99.90;;;;;;5004421;28;20575;-70
2023/03/03 02:09:20;;;;;;;15.20;7.03;;;12.00;99.90;;;;;;5018180;28;20222;-71
2023/03/03 02:11:49;;;;;;;13.83;6.83;;;12.00;99.90;;;;;;5019042;28;20211;-71
2023/03/03 02:14:15;;;;;;;19.63;7.20;;;11.90;99.90;;;;;;5003327;28;20191;-71
2023/03/03 02:16:44;;;;;;;17.47;7.57;;;12.00;99.90;;;;;;5017799;28;20266;-70
2023/03/03 02:19:48;;;;;;;13.27;7.10;;;12.00;99.90;;;;;;5016590;28;20276;-71
2023/03/03 02:22:20;;;;;;;18.53;7.13;;;12.00;99.90;;;;;;5020162;28;20208;-71
2023/03/03 02:25:01;;;;;;;17.87;7.03;;;12.00;99.90;;;;;;5019458;28;20188;-71
2023/03/03 02:27:31;;;;;;;15.17;7.00;;;12.10;99.90;;;;;;5017349;28;20657;-70
2023/03/03 02:30:06;;;;;;;16.97;7.57;;;12.10;99.90;;;;;;5018782;28;20215;-70
2023/03/03 02:32:33;;;;;;;21.13;7.90;;;12.00;99.90;;;;;;5018238;28;20195;-70
2023/03/03 02:34:59;;;;;;;13.10;6.50;;;12.00;99.90;;;;;;5020235;28;20626;-71
2023/03/03 02:37:25;;;;;;;14.53;7.63;;;12.00;99.90;;;;;;5019654;28;20196;-70
2023/03/03 02:39:52;;;;;;;13.70;7.00;;;12.00;99.90;;;;;;5020729;28;21710;-70
2023/03/03 02:42:29;;;;;;;16.03;7.00;;;12.00;99.90;;;;;;5003994;28;20857;-71
2023/03/03 02:44:56;;;;;;;14.00;6.67;;;11.90;99.90;;;;;;5020264;28;20289;-70
2023/03/03 02:47:22;;;;;;;13.70;7.30;;;11.90;99.90;;;;;;5020145;28;20193;-70
2023/03/03 02:49:48;;;;;;;14.20;6.63;;;11.90;99.90;;;;;;5020096;28;20219;-70
2023/03/03 02:52:16;;;;;;;17.47;7.43;;;11.90;99.90;;;;;;5021184;28;20199;-71
2023/03/03 02:54:43;;;;;;;15.87;7.03;;;11.80;99.90;;;;;;5018825;28;20330;-70
2023/03/03 02:57:09;;;;;;;18.07;7.40;;;11.80;99.90;;;;;;5002375;28;20192;-70
2023/03/03 02:59:35;;;;;;;19.03;7.20;;;11.80;99.90;;;;;;5001607;28;20630;-71
2023/03/03 03:02:02;;;;;;;14.20;6.67;;;11.80;99.90;;;;;;5019742;28;20305;-70
2023/03/03 03:04:28;;;;;;;19.43;6.87;;;11.80;99.90;;;;;;5002785;28;20828;-70
2023/03/03 03:06:55;;;;;;;14.40;6.33;;;11.70;99.90;;;;;;5001726;28;20184;-70
2023/03/03 03:09:24;;;;;;;16.63;6.20;;;11.70;99.90;;;;;;5020206;28;20188;-70
2023/03/03 03:11:51;;;;;;;16.07;6.43;;;11.70;99.90;;;;;;5018744;28;20204;-70
2023/03/03 03:14:17;;;;;;;13.40;6.53;;;11.70;99.90;;;;;;5018805;28;20723;-71
2023/03/03 03:16:43;;;;;;;14.70;7.43;;;11.70;99.90;;;;;;5017893;28;20275;-70
2023/03/03 03:19:10;;;;;;;17.07;7.37;;;11.70;99.90;;;;;;5017260;28;20291;-70
2023/03/03 03:21:36;;;;;;;17.07;7.30;;;11.70;99.90;;;;;;5019895;28;20610;-70
2023/03/03 03:24:03;;;;;;;15.10;6.90;;;11.60;99.90;;;;;;5002204;28;20198;-70
2023/03/03 03:26:29;;;;;;;18.00;6.90;;;11.60;99.90;;;;;;5018780;28;20216;-70
2023/03/03 03:28:55;;;;;;;14.77;6.23;;;11.60;99.90;;;;;;5018970;28;20207;-70
2023/03/03 03:31:22;;;;;;;15.43;7.00;;;11.60;99.90;;;;;;5019643;28;20649;-70
2023/03/03 03:33:48;;;;;;;17.97;7.00;;;11.60;99.90;;;;;;5015231;28;20219;-70
2023/03/03 03:36:16;;;;;;;14.30;6.53;;;11.60;99.90;;;;;;4987238;28;20272;-70
2023/03/03 03:38:42;;;;;;;15.37;6.70;;;11.70;99.90;;;;;;5018881;28;20196;-70
2023/03/03 03:41:10;;;;;;;22.03;6.23;;;11.80;99.90;;;;;;5020780;28;20291;-70
2023/03/03 03:43:36;;;;;;;23.40;6.83;;;11.90;99.90;;;;;;5001492;28;20265;-71
2023/03/03 03:46:03;;;;;;;17.77;6.77;;;12.00;99.90;;;;;;5019007;28;20188;-70
2023/03/03 03:48:29;;;;;;;20.77;6.90;;;12.10;99.90;;;;;;5023167;28;20176;-70
2023/03/03 03:50:56;;;;;;;14.07;7.37;;;12.00;99.90;;;;;;5018503;28;20177;-70
2023/03/03 03:53:22;;;;;;;16.00;6.40;;;11.90;99.90;;;;;;5002848;28;20204;-70
2023/03/03 03:55:48;;;;;;;16.73;7.07;;;11.80;99.90;;;;;;5002146;28;20180;-70
2023/03/03 03:58:17;;;;;;;12.67;6.57;;;11.80;99.90;;;;;;5019240;28;20266;-71
2023/03/03 04:00:45;;;;;;;21.07;7.10;;;11.70;99.90;;;;;;5019959;28;20236;-70
2023/03/03 04:03:14;;;;;;;17.10;6.20;;;11.70;99.90;;;;;;5019652;28;20266;-70
2023/03/03 04:05:42;;;;;;;13.53;6.23;;;11.70;99.90;;;;;;5019640;28;20189;-70
2023/03/03 04:08:09;;;;;;;13.97;6.50;;;11.70;99.90;;;;;;5018958;28;20656;-70
2023/03/03 04:10:35;;;;;;;14.80;7.23;;;11.60;99.90;;;;;;5002750;28;20184;-70
2023/03/03 04:13:01;;;;;;;20.17;6.97;;;11.60;99.90;;;;;;5019808;28;20197;-70
2023/03/03 04:15:27;;;;;;;20.37;7.10;;;11.50;99.90;;;;;;5002230;28;20583;-71
2023/03/03 04:17:54;;;;;;;16.97;7.03;;;11.40;99.90;;;;;;5001232;28;20200;-70
2023/03/03 04:20:20;;;;;;;18.30;7.00;;;11.40;99.90;;;;;;5017817;28;20183;-70
2023/03/03 04:22:46;;;;;;;15.83;7.43;;;11.30;99.90;;;;;;5020649;28;20218;-70
2023/03/03 04:25:16;;;;;;;15.90;6.83;;;11.30;99.90;;;;;;4998237;28;20267;-71
2023/03/03 04:27:43;;;;;;;18.45;8.07;;;11.30;99.90;;;;;;4999805;28;20518;-70
2023/03/03 04:30:11;;;;;;;16.20;8.50;;;11.40;99.90;;;;;;5000644;28;20212;-71
2023/03/03 04:32:37;;;;;;;21.43;9.30;;;11.40;99.90;;;;;;5016846;28;20192;-70
2023/03/03 04:35:04;;;;;;;20.53;10.27;;;11.40;99.90;;;;;;5020179;28;20301;-71
2023/03/03 04:37:31;;;;;;;20.37;10.97;;;11.40;99.90;;;;;;5017373;28;20290;-71
2023/03/03 04:39:57;;;;;;;23.27;12.03;;;11.50;99.90;;;;;;5017995;28;20218;-70
2023/03/03 04:42:23;;;;;;;24.47;13.00;;;11.50;99.90;;;;;;5000821;28;20811;-70
2023/03/03 04:44:49;;;;;;;25.70;12.73;;;11.50;99.90;;;;;;5019411;28;20176;-70
2023/03/03 04:47:16;;;;;;;27.03;12.60;;;11.40;99.90;;;;;;5016440;28;20196;-70
2023/03/03 04:49:42;;;;;;;20.27;12.50;;;11.40;99.90;;;;;;5018006;28;20184;-70
2023/03/03 04:52:08;;;;;;;18.03;12.83;;;11.40;99.90;;;;;;5001361;28;20525;-70
2023/03/03 04:54:35;;;;;;;23.13;14.30;;;11.40;99.90;;;;;;5019494;28;20699;-71
2023/03/03 04:57:01;;;;;;;24.30;15.63;;;11.40;99.90;;;;;;5019218;28;20203;-72
2023/03/03 04:59:27;;;;;;;27.53;15.80;;;11.40;99.90;;;;;;5018589;28;20191;-71
2023/03/03 05:01:53;;;;;;;27.53;18.50;;;11.50;99.90;;;;;;5016039;28;20932;-70
2023/03/03 05:04:19;;;;;;;28.40;17.70;;;11.50;99.90;;;;;;5002440;28;20184;-70
2023/03/03 05:06:48;;;;;;;24.53;17.27;;;11.50;99.90;;;;;;5017710;28;20188;-70
2023/03/03 05:09:15;;;;;;;30.87;18.73;;;11.50;99.90;;;;;;5016704;28;21012;-70
2023/03/03 05:11:43;;;;;;;25.50;16.57;;;11.50;99.90;;;;;;5000973;28;20207;-70
2023/03/03 05:14:11;;;;;;;26.17;16.73;;;11.60;99.90;;;;;;5017564;28;20571;-70
2023/03/03 05:16:38;;;;;;;26.57;13.70;;;11.60;99.90;;;;;;4997589;28;20230;-70
2023/03/03 05:19:04;;;;;;;24.23;14.17;;;11.60;99.90;;;;;;5015859;28;20207;-70
2023/03/03 05:21:30;;;;;;;19.00;12.90;;;11.60;99.90;;;;;;5000268;28;20754;-71
2023/03/03 05:23:57;;;;;;;18.13;12.30;;;11.70;99.90;;;;;;5017275;28;20310;-70
2023/03/03 05:26:23;;;;;;;30.70;13.23;;;11.70;99.90;;;;;;5002200;28;20200;-70
2023/03/03 05:28:49;;;;;;;24.43;11.87;;;11.70;99.90;;;;;;5003030;28;20643;-70
2023/03/03 05:31:15;;;;;;;25.27;13.50;;;11.80;99.90;;;;;;5022687;28;20184;-70
2023/03/03 05:33:41;;;;;;;22.43;13.20;;;11.80;99.90;;;;;;5020559;28;20219;-70
2023/03/03 05:36:08;;;;;;;22.37;14.30;;;11.90;99.90;;;;;;5022647;28;20199;-70
2023/03/03 05:38:34;;;;;;;25.67;14.10;;;12.00;99.90;;;;;;5005394;28;20192;-70
2023/03/03 05:41:00;;;;;;;30.60;16.33;;;12.10;99.90;;;;;;4988927;28;20192;-71
2023/03/03 05:43:30;;;;;;;29.47;16.53;;;12.20;99.90;;;;;;5005184;28;20485;-70
2023/03/03 05:45:57;;;;;;;23.53;15.47;;;12.20;99.90;;;;;;5021518;28;20188;-70
2023/03/03 05:48:24;;;;;;;30.60;14.87;;;12.30;99.90;;;;;;5021857;28;20926;-71
2023/03/03 05:50:50;;;;;;;21.73;14.77;;;12.30;99.90;;;;;;5022092;28;20862;-70
2023/03/03 05:53:16;;;;;;;23.50;14.70;;;12.40;99.90;;;;;;5020519;28;20274;-70
2023/03/03 05:55:43;;;;;;;20.27;15.27;;;12.40;99.90;;;;;;5019100;28;20192;-70
2023/03/03 05:58:10;;;;;;;33.43;16.13;;;12.50;99.90;;;;;;5000272;28;20224;-70
2023/03/03 06:00:37;;;;;;;24.60;15.73;;;12.50;99.90;;;;;;5021382;28;20279;-70
2023/03/03 06:03:03;;;;;;;25.07;16.07;;;12.60;99.90;;;;;;5020511;28;20362;-70
2023/03/03 06:05:30;;;;;;;29.47;15.10;;;12.60;99.90;;;;;;5022340;28;20551;-71
2023/03/03 06:07:56;;;;;;;23.40;15.00;;;12.70;99.90;;;;;;5021646;28;20195;-70
2023/03/03 06:10:24;;;;;;;27.77;14.93;;;12.80;99.90;;;;;;5003103;28;20223;-71
2023/03/03 06:12:51;;;;;;;35.03;14.90;;;12.90;99.90;;;;;;5003326;28;20208;-70
2023/03/03 06:15:18;;;;;;;23.83;14.80;;;12.90;99.90;;;;;;5021641;28;20792;-70
2023/03/03 06:17:44;;;;;;;29.70;13.83;;;13.10;99.90;;;;;;5002032;28;20198;-70
2023/03/03 06:20:11;;;;;;;30.77;14.17;;;13.20;99.90;;;;;;5021576;28;20196;-70
2023/03/03 06:22:40;;;;;;;28.20;14.03;;;13.30;99.90;;;;;;5021200;28;20212;-70
2023/03/03 06:25:07;;;;;;;24.47;14.17;;;13.50;99.90;;;;;;4989258;28;20180;-70
2023/03/03 06:27:33;;;;;;;32.93;14.43;;;13.60;99.90;;;;;;5001306;28;20741;-70
2023/03/03 06:30:00;;;;;;;32.33;14.03;;;13.70;99.90;;;;;;5004173;28;20196;-70
2023/03/03 06:32:26;;;;;;;27.40;13.57;;;13.70;99.90;;;;;;5019536;28;20226;-70
2023/03/03 06:34:52;;;;;;;31.20;14.37;;;13.80;99.90;;;;;;5021489;28;21987;-70
2023/03/03 06:37:19;;;;;;;29.67;13.73;;;13.90;99.90;;;;;;5002245;28;20199;-71
2023/03/03 06:39:45;;;;;;;26.50;13.17;;;14.00;99.90;;;;;;5019249;28;20184;-70
2023/03/03 06:42:11;;;;;;;32.80;13.03;;;14.10;99.90;;;;;;5006047;28;20616;-71
2023/03/03 06:44:38;;;;;;;24.83;12.07;;;14.20;99.90;;;;;;5003313;28;20195;-70
2023/03/03 06:47:04;;;;;;;33.23;12.73;;;14.20;99.90;;;;;;5021198;28;20196;-70
2023/03/03 06:49:31;;;;;;;26.90;11.90;;;14.30;99.90;;;;;;5022047;28;20192;-70
2023/03/03 06:52:04;;;;;;;25.50;11.77;;;14.30;99.90;;;;;;5018634;28;20302;-71
2023/03/03 06:54:30;;;;;;;28.07;11.67;;;14.40;99.90;;;;;;5019853;28;20189;-71
2023/03/03 06:57:15;;;;;;;33.07;12.17;;;14.40;99.90;;;;;;5003302;28;20227;-70
2023/03/03 06:59:41;;;;;;;23.07;11.13;;;14.40;99.90;;;;;;5002771;28;20687;-70
2023/03/03 07:02:17;;;;;;;18.57;10.73;;;14.60;99.90;;;;;;4986484;28;20274;-70
2023/03/03 07:04:47;;;;;;;24.00;11.63;;;14.80;99.90;;;;;;5019808;28;20192;-71
2023/03/03 07:07:23;;;;;;;26.63;10.17;;;14.70;99.90;;;;;;5020664;28;20226;-71
2023/03/03 07:09:54;;;;;;;25.60;12.27;;;14.70;99.90;;;;;;5020870;28;21235;-70
2023/03/03 07:12:30;;;;;;;25.80;11.97;;;14.60;99.90;;;;;;5005642;28;20196;-70
2023/03/03 07:15:19;;;;;;;25.43;11.20;;;14.60;99.90;;;;;;5020190;28;20196;-70
2023/03/03 07:17:49;;;;;;;23.20;11.97;;;14.40;99.90;;;;;;5019257;28;20196;-70
2023/03/03 07:20:26;;;;;;;21.43;10.30;;;14.40;99.90;;;;;;5018734;28;20223;-71
2023/03/03 07:22:53;;;;;;;20.73;11.60;;;14.60;99.90;;;;;;5019127;28;20275;-71
2023/03/03 07:25:34;;;;;;;19.97;11.50;;;14.30;99.90;;;;;;4984555;28;20251;-70
2023/03/03 07:28:22;;;;;;;28.17;11.93;;;14.20;99.90;;;;;;4998454;28;20204;-70
2023/03/03 07:30:48;;;;;;;23.10;11.13;;;14.40;99.90;;;;;;5015877;28;20192;-70
2023/03/03 07:33:34;;;;;;;21.90;12.20;;;14.30;99.90;;;;;;5020844;28;20224;-70
2023/03/03 07:36:05;;;;;;;25.87;12.13;;;14.20;99.90;;;;;;5019370;28;20196;-70
2023/03/03 07:38:50;;;;;;;24.43;12.47;;;14.00;99.90;;;;;;5002665;28;20199;-70
2023/03/03 07:41:22;;;;;;;22.87;11.93;;;14.00;99.90;;;;;;5017864;28;20236;-71
2023/03/03 07:44:06;;;;;;;19.57;12.10;;;14.20;99.90;;;;;;5019125;28;20218;-70
2023/03/03 07:46:48;;;;;;;20.63;11.67;;;14.20;99.90;;;;;;4999970;28;20271;-70
2023/03/03 07:49:36;;;;;;;21.97;11.43;;;14.30;99.90;;;;;;5017818;28;20200;-71
2023/03/03 07:52:35;;;;;;;26.83;10.30;;;14.20;99.90;;;;;;5017102;28;20192;-70
2023/03/03 07:55:25;;;;;;;29.30;11.37;;;15.00;99.90;;;;;;5017771;28;20522;-70
2023/03/03 07:57:56;;;;;;;20.90;11.53;;;14.90;99.90;;;;;;5016239;28;20903;-71
2023/03/03 08:00:28;;;;;;;22.57;11.07;;;15.00;99.90;;;;;;5001702;28;20342;-70
2023/03/03 08:03:01;;;;;;;23.03;11.70;;;15.30;99.90;;;;;;5018237;28;20921;-70
2023/03/03 08:05:43;;;;;;;24.03;10.93;;;15.70;99.90;;;;;;5001142;28;20258;-70
2023/03/03 08:08:15;;;;;;;28.37;11.87;;;15.70;99.90;;;;;;5020169;28;20238;-70
2023/03/03 08:10:54;;;;;;;24.03;10.73;;;15.90;99.90;;;;;;5018447;28;20188;-70
2023/03/03 08:13:24;;;;;;;23.73;10.43;;;16.00;99.90;;;;;;5001113;28;20219;-70
2023/03/03 08:16:01;;;;;;;26.03;10.07;;;15.80;99.90;;;;;;5019248;28;20184;-70
2023/03/03 08:18:33;;;;;;;21.10;10.07;;;15.90;99.90;;;;;;5014805;28;20192;-71
2023/03/03 08:21:17;;;;;;;26.77;9.67;;;15.80;99.90;;;;;;5016782;28;20199;-70
2023/03/03 08:23:43;;;;;;;32.20;10.40;;;15.90;99.90;;;;;;5020663;28;20212;-71
2023/03/03 08:26:12;;;;;;;26.10;10.20;;;16.10;99.90;;;;;;5019683;28;20184;-70
2023/03/03 08:28:39;;;;;;;25.00;10.70;;;16.20;99.90;;;;;;5018945;28;20610;-70
2023/03/03 08:31:05;;;;;;;25.00;10.27;;;16.10;99.90;;;;;;5012490;28;20192;-70
2023/03/03 08:33:31;;;;;;;24.00;9.97;;;16.20;99.90;;;;;;5015992;28;20214;-70
2023/03/03 08:35:58;;;;;;;23.90;11.13;;;16.50;99.90;;;;;;4984870;28;20207;-70
2023/03/03 08:38:25;;;;;;;21.40;10.33;;;16.50;99.90;;;;;;5019148;28;20192;-70
2023/03/03 08:40:53;;;;;;;22.97;10.73;;;16.70;99.90;;;;;;5018542;28;20207;-71
2023/03/03 08:43:21;;;;;;;26.50;11.57;;;16.90;99.90;;;;;;5001131;28;20319;-70
2023/03/03 08:45:50;;;;;;;24.37;10.77;;;16.90;99.90;;;;;;5019371;28;20196;-70
2023/03/03 08:48:18;;;;;;;21.03;11.23;;;16.90;99.90;;;;;;5013511;28;20293;-70
2023/03/03 08:50:44;;;;;;;25.33;11.10;;;16.80;99.90;;;;;;5000588;28;20205;-71
2023/03/03 08:53:13;;;;;;;22.97;11.23;;;16.90;99.90;;;;;;5017391;28;20219;-71
2023/03/03 08:55:41;;;;;;;28.23;11.53;;;17.10;99.90;;;;;;5018844;28;20207;-70
2023/03/03 08:58:07;;;;;;;25.90;11.50;;;17.20;99.90;;;;;;4999872;28;20215;-70
2023/03/03 09:00:34;;;;;;;25.87;12.63;;;17.30;99.90;;;;;;5018295;28;20249;-71
2023/03/03 09:03:01;;;;;;;27.17;12.33;;;17.30;99.90;;;;;;5013766;28;20226;-70
2023/03/03 09:05:27;;;;;;;24.47;12.40;;;17.10;99.90;;;;;;5002258;28;20279;-71
2023/03/03 09:07:54;;;;;;;30.57;13.63;;;17.10;99.90;;;;;;5017539;28;20314;-71
2023/03/03 09:10:29;;;;;;;34.53;12.97;;;17.10;99.90;;;;;;5000407;28;20195;-71
2023/03/03 09:13:01;;;;;;;23.17;13.47;;;17.30;99.90;;;;;;5002540;28;20253;-72
2023/03/03 09:15:40;;;;;;;32.40;13.07;;;17.20;99.90;;;;;;5017350;28;20287;-70
2023/03/03 09:18:38;;;;;;;31.40;13.00;;;17.20;99.90;;;;;;5014373;28;20199;-71
2023/03/03 09:21:33;;;;;;;21.67;11.13;;;17.50;99.90;;;;;;5016537;28;20204;-72
2023/03/03 09:24:00;;;;;;;22.90;11.53;;;17.60;99.90;;;;;;4983732;28;20947;-72
2023/03/03 09:26:29;;;;;;;20.00;11.97;;;17.60;99.90;;;;;;5016370;28;20195;-72
2023/03/03 09:29:23;;;;;;;20.07;11.57;;;17.70;99.90;;;;;;5016733;28;20255;-72
2023/03/03 09:32:20;;;;;;;20.87;11.67;;;17.90;99.90;;;;;;4996313;28;20196;-72
2023/03/03 09:34:46;;;;;;;32.03;12.70;;;18.00;99.90;;;;;;5000598;28;20192;-71
2023/03/03 09:37:31;;;;;;;29.37;13.20;;;18.10;99.90;;;;;;5018053;28;20245;-72
2023/03/03 09:39:58;;;;;;;30.33;12.93;;;18.20;99.90;;;;;;5016100;28;20204;-71
2023/03/03 09:42:41;;;;;;;29.90;14.40;;;18.20;99.90;;;;;;5002106;28;20224;-71
2023/03/03 09:45:47;;;;;;;26.47;11.87;;;18.10;99.90;;;;;;5016123;28;20221;-71
2023/03/03 09:48:44;;;;;;;27.50;12.80;;;18.30;99.90;;;;;;5017123;28;20195;-72
2023/03/03 09:52:01;;;;;;;25.33;12.90;;;18.40;99.90;;;;;;5015865;28;20192;-72
2023/03/03 09:55:04;;;;;;;22.97;12.67;;;18.40;99.90;;;;;;4975601;28;20208;-72
2023/03/03 09:58:04;;;;;;;31.70;12.57;;;18.40;99.90;;;;;;5016811;28;20891;-72
2023/03/03 10:01:11;;;;;;;28.07;13.00;;;18.40;99.90;;;;;;5018045;28;20203;-71
2023/03/03 10:04:21;;;;;;;24.13;12.50;;;18.30;99.90;;;;;;4982910;28;20211;-72
2023/03/03 10:07:13;;;;;;;26.37;13.17;;;18.20;99.90;;;;;;4970377;28;20199;-72
2023/03/03 10:10:02;;;;;;;25.43;12.00;;;18.10;99.90;;;;;;5015188;28;20188;-72
2023/03/03 10:12:45;;;;;;;27.83;12.30;;;18.40;99.90;;;;;;5018174;28;20202;-72
2023/03/03 10:16:02;;;;;;;27.17;11.43;;;18.70;99.90;;;;;;5020063;28;20571;-72
2023/03/03 10:19:01;;;;;;;28.30;11.57;;;18.40;99.90;;;;;;5021937;28;20366;-72
2023/03/03 10:21:59;;;;;;;27.80;10.10;;;18.50;99.90;;;;;;5021813;28;20192;-72
2023/03/03 10:25:00;;;;;;;25.10;10.57;;;18.90;99.90;;;;;;5001166;28;20211;-72
2023/03/03 10:27:50;;;;;;;31.37;11.03;;;19.20;99.90;;;;;;4998588;28;20288;-72
2023/03/03 10:30:54;;;;;;;19.47;10.57;;;19.30;99.90;;;;;;5002931;28;20200;-72
2023/03/03 10:33:43;;;;;;;26.10;10.17;;;19.40;99.90;;;;;;5021751;28;20215;-72
2023/03/03 10:36:34;;;;;;;23.43;9.80;;;19.60;99.90;;;;;;5021495;28;20238;-72
2023/03/03 10:39:03;;;;;;;24.60;10.37;;;19.80;99.90;;;;;;5019868;28;20208;-72
2023/03/03 10:42:05;;;;;;;21.98;9.60;;;19.90;99.90;;;;;;5004045;28;20196;-72
2023/03/03 10:44:38;;;;;;;29.20;9.90;;;19.90;99.90;;;;;;5004281;28;20222;-71
2023/03/03 10:47:57;;;;;;;24.30;10.90;;;19.80;99.90;;;;;;5020274;28;20215;-71
2023/03/03 10:51:25;;;;;;;21.20;10.48;;;20.00;99.90;;;;;;5021704;28;20184;-72
2023/03/03 10:54:05;;;;;;;23.17;10.43;;;20.20;99.90;;;;;;4946995;28;20207;-72
2023/03/03 10:57:03;;;;;;;28.90;11.55;;;20.30;99.90;;;;;;5004648;28;20199;-71
2023/03/03 11:00:13;;;;;;;23.20;10.68;;;20.60;99.90;;;;;;5020573;28;20199;-72
2023/03/03 11:03:33;;;;;;;22.30;10.93;;;20.80;99.90;;;;;;5019950;28;20370;-71
2023/03/03 11:06:26;;;;;;;17.90;10.38;;;20.90;99.90;;;;;;5001676;28;20195;-72
2023/03/03 11:09:09;;;;;;;25.40;11.00;;;20.80;99.90;;;;;;5024637;28;20246;-72
2023/03/03 11:12:17;;;;;;;25.38;11.30;;;20.90;99.90;;;;;;5019490;28;20272;-72
2023/03/03 11:15:26;;;;;;;27.05;11.73;;;21.10;99.90;;;;;;5007211;28;20646;-71
2023/03/03 11:18:11;;;;;;;21.25;12.38;;;21.20;99.90;;;;;;5000712;28;20296;-72
2023/03/03 11:21:20;;;;;;;27.70;13.10;;;20.70;99.90;;;;;;5019029;28;20191;-71
2023/03/03 11:24:04;;;;;;;33.03;13.60;;;20.60;99.90;;;;;;5018863;28;20212;-72
2023/03/03 11:26:55;;;;;;;29.55;14.52;;;20.40;99.90;;;;;;5019211;28;20576;-72
2023/03/03 11:29:51;;;;;;;26.05;14.38;;;20.20;99.90;;;;;;5002485;28;20262;-72
2023/03/03 11:32:33;;;;;;;28.97;13.83;;;20.10;99.90;;;;;;5019882;28;20291;-72
2023/03/03 11:35:39;;;;;;;32.00;14.07;;;20.00;99.90;;;;;;5003110;28;20202;-72
2023/03/03 11:38:46;;;;;;;39.03;16.87;;;20.10;99.90;;;;;;5017802;28;20195;-72
2023/03/03 11:41:53;;;;;;;29.67;15.70;;;19.90;99.90;;;;;;5019493;28;20237;-72
2023/03/03 11:44:41;;;;;;;31.23;15.43;;;19.60;99.90;;;;;;5018418;28;20219;-72
2023/03/03 11:47:28;;;;;;;30.47;16.00;;;19.10;99.90;;;;;;5019067;28;20214;-72
2023/03/03 11:50:02;;;;;;;32.53;17.27;;;19.50;99.90;;;;;;5015069;28;20862;-72
2023/03/03 11:53:22;;;;;;;31.77;17.37;;;19.60;99.90;;;;;;5017024;28;20234;-72
2023/03/03 11:55:57;;;;;;;35.57;15.27;;;19.30;99.90;;;;;;5018702;28;20203;-72
2023/03/03 11:58:44;;;;;;;31.17;16.87;;;19.40;99.90;;;;;;4997197;28;20195;-72
2023/03/03 12:01:55;;;;;;;29.00;17.37;;;19.60;99.90;;;;;;5001744;28;20195;-72
2023/03/03 12:04:57;;;;;;;34.00;16.67;;;19.20;99.90;;;;;;4983550;28;20227;-72
2023/03/03 12:08:01;;;;;;;31.70;16.33;;;19.60;99.90;;;;;;5000156;28;20323;-72
2023/03/03 12:11:02;;;;;;;29.97;17.07;;;19.00;99.90;;;;;;4998421;28;20180;-71
2023/03/03 12:13:57;;;;;;;27.23;15.67;;;19.00;99.90;;;;;;4998070;28;20195;-71
2023/03/03 12:16:38;;;;;;;32.80;16.50;;;18.90;99.90;;;;;;5021868;28;20180;-71
2023/03/03 12:19:33;;;;;;;35.23;15.57;;;18.70;99.90;;;;;;5018647;28;20910;-72
2023/03/03 12:22:15;;;;;;;31.57;16.43;;;19.10;99.90;;;;;;5015676;28;20191;-71
2023/03/03 12:24:57;;;;;;;31.23;17.13;;;19.30;99.90;;;;;;5016935;28;20279;-71
2023/03/03 12:27:50;;;;;;;39.20;16.20;;;19.60;99.90;;;;;;5016750;28;20195;-71
2023/03/03 12:30:54;;;;;;;36.03;17.20;;;19.60;99.90;;;;;;4996784;28;20539;-71
2023/03/03 12:33:55;;;;;;;28.23;16.97;;;19.90;99.90;;;;;;5017176;28;20191;-71
2023/03/03 12:36:58;;;;;;;32.50;15.63;;;19.20;99.90;;;;;;5016941;28;20202;-71
2023/03/03 12:39:55;;;;;;;31.70;16.63;;;18.80;99.90;;;;;;5015431;28;20223;-71
2023/03/03 12:42:50;;;;;;;26.50;16.97;;;19.00;99.90;;;;;;5017861;28;20200;-71
2023/03/03 12:45:37;;;;;;;33.30;16.83;;;18.80;99.90;;;;;;5003270;28;20192;-71
2023/03/03 12:48:26;;;;;;;29.13;17.97;;;18.50;99.90;;;;;;5017516;28;20536;-71
2023/03/03 12:51:32;;;;;;;34.63;17.97;;;18.40;99.90;;;;;;4999623;28;20184;-71
2023/03/03 12:54:40;;;;;;;29.50;16.53;;;18.80;99.90;;;;;;5000193;28;20202;-71
2023/03/03 12:57:40;;;;;;;35.27;17.70;;;18.60;99.90;;;;;;4992012;28;20278;-71
2023/03/03 13:00:36;;;;;;;47.77;18.83;;;18.40;99.90;;;;;;5016213;28;20572;-71
2023/03/03 13:04:04;;;;;;;36.03;19.43;;;18.90;99.90;;;;;;5001504;28;20215;-71
2023/03/03 13:07:03;;;;;;;29.80;16.17;;;19.00;99.90;;;;;;4947144;28;22168;-71
2023/03/03 13:09:54;;;;;;;29.03;13.77;;;19.10;99.90;;;;;;5018270;28;20219;-71
2023/03/03 13:12:46;;;;;;;32.60;13.70;;;19.30;99.90;;;;;;5015719;28;20273;-71
2023/03/03 13:15:15;;;;;;;30.40;14.80;;;19.50;99.90;;;;;;5020046;28;20710;-72
2023/03/03 13:18:23;;;;;;;26.17;12.83;;;19.50;99.90;;;;;;5017222;28;20213;-72
2023/03/03 13:21:04;;;;;;;32.60;14.03;;;19.50;99.90;;;;;;5000686;28;21679;-72